METAR Data
IDs: Format: Raw Decoded Include TAF

Data at: 0120 UTC 19 Dec 2018

METAR for:KLUK (Cincinnati/Lunken Ar, OH, US)
Text:KLUK 190053Z 00000KT 10SM CLR 01/M01 A3019 RMK AO2 SLP227 T00061011
Temperature: 0.6°C ( 33°F)
Dewpoint: -1.1°C ( 30°F) [RH = 88%]
Pressure (altimeter):30.19 inches Hg (1022.4 mb) [Sea level pressure: 1022.7 mb]
Winds:calm
Visibility:10 or more sm (16+ km)
Ceiling:at least 12,000 feet AGL
Clouds:sky clear below 12,000 feet AGL